createdAt,value
2019-05-19T00:00:20.238Z,64.64
2019-05-19T00:01:35.295Z,64.53
2019-05-19T00:02:35.779Z,64.84
2019-05-19T00:03:43.298Z,64.64
2019-05-19T00:04:43.729Z,64.73
2019-05-19T00:05:51.859Z,64.73
2019-05-19T00:06:52.330Z,64.53
2019-05-19T00:07:54.899Z,64.53
2019-05-19T00:08:55.351Z,64.84
2019-05-19T00:09:56.856Z,65.24
2019-05-19T00:10:57.282Z,65.24
2019-05-19T00:11:59.842Z,65.04
2019-05-19T00:13:00.299Z,65.14
2019-05-19T00:14:00.877Z,65.04
2019-05-19T00:15:01.302Z,65.45
2019-05-19T00:16:01.826Z,65.45
2019-05-19T00:17:02.304Z,65.58
2019-05-19T00:18:03.874Z,65.24
2019-05-19T00:19:04.299Z,65.24
2019-05-19T00:20:04.812Z,65.17
2019-05-19T00:21:05.254Z,65.58
2019-05-19T00:22:24.330Z,65.45
2019-05-19T00:23:24.751Z,65.58
2019-05-19T00:24:33.303Z,65.58
2019-05-19T00:25:33.728Z,65.85
2019-05-19T00:26:35.615Z,65.78
2019-05-19T00:27:36.288Z,65.68
2019-05-19T00:28:38.865Z,65.58
2019-05-19T00:29:39.292Z,65.58
2019-05-19T00:30:40.824Z,65.78
2019-05-19T00:31:41.291Z,65.99
2019-05-19T00:32:41.902Z,65.99
2019-05-19T00:33:42.328Z,65.78
2019-05-19T00:34:43.931Z,65.88
2019-05-19T00:35:44.374Z,65.88
2019-05-19T00:36:44.965Z,65.99
2019-05-19T00:37:45.422Z,66.08
2019-05-19T00:38:54.806Z,65.78
2019-05-19T00:39:55.236Z,65.78
2019-05-19T00:41:02.299Z,66.19
2019-05-19T00:42:02.746Z,66.29
2019-05-19T00:43:10.297Z,66.29
2019-05-19T00:44:10.747Z,65.78
2019-05-19T00:45:11.345Z,66.29
2019-05-19T00:46:11.777Z,66.12
2019-05-19T00:47:14.350Z,66.02
2019-05-19T00:48:14.775Z,66.39
2019-05-19T00:49:15.356Z,66.49
2019-05-19T00:50:15.811Z,66.22
2019-05-19T00:51:16.392Z,66.39
2019-05-19T00:52:16.855Z,66.52
2019-05-19T00:53:25.326Z,66.42
2019-05-19T00:54:26.661Z,66.22
2019-05-19T00:55:33.828Z,66.32
2019-05-19T00:56:34.267Z,66.32
2019-05-19T00:57:39.311Z,66.49
2019-05-19T00:58:39.735Z,66.63
2019-05-19T00:59:40.303Z,66.49
2019-05-19T01:00:40.743Z,66.83
2019-05-19T01:01:49.435Z,66.63
2019-05-19T01:02:49.887Z,66.72
2019-05-19T01:03:50.484Z,66.63
2019-05-19T01:04:50.936Z,66.63
2019-05-19T01:05:59.297Z,66.63
2019-05-19T01:06:59.734Z,66.86
2019-05-19T01:08:07.329Z,66.72
2019-05-19T01:09:08.167Z,66.83
2019-05-19T01:10:09.360Z,66.63
2019-05-19T01:11:09.785Z,67.06
2019-05-19T01:12:11.317Z,66.35
2019-05-19T01:13:11.762Z,66.76
2019-05-19T01:14:19.314Z,66.86
2019-05-19T01:15:19.749Z,66.55
2019-05-19T01:16:22.301Z,66.46
2019-05-19T01:17:22.781Z,66.55
2019-05-19T01:18:30.307Z,66.46
2019-05-19T01:19:30.739Z,66.35
2019-05-19T01:20:38.227Z,67.27
2019-05-19T01:21:38.656Z,66.55
2019-05-19T01:22:39.270Z,67.06
2019-05-19T01:23:39.695Z,67.27
2019-05-19T01:24:54.824Z,67.16
2019-05-19T01:25:55.292Z,67.06
2019-05-19T01:26:55.856Z,67.19
2019-05-19T01:27:56.301Z,67.19
2019-05-19T01:28:56.905Z,67.16
2019-05-19T01:29:57.344Z,66.79
2019-05-19T01:30:57.943Z,66.89
2019-05-19T01:31:58.373Z,66.89
2019-05-19T01:32:58.908Z,66.99
2019-05-19T01:33:59.332Z,66.69
2019-05-19T01:34:59.911Z,67.71
2019-05-19T01:36:00.341Z,67.71
2019-05-19T01:37:01.969Z,67.80
2019-05-19T01:38:02.441Z,68.01
2019-05-19T01:39:03.019Z,68.35
2019-05-19T01:40:03.476Z,67.80
2019-05-19T01:41:05.075Z,67.50
2019-05-19T01:42:05.513Z,67.83
2019-05-19T01:43:06.129Z,67.80
2019-05-19T01:44:06.578Z,68.04
2019-05-19T01:45:07.164Z,68.32
2019-05-19T01:46:07.603Z,68.21
2019-05-19T01:47:10.233Z,68.24
2019-05-19T01:48:10.675Z,68.24
2019-05-19T01:49:17.821Z,68.24
2019-05-19T01:50:18.831Z,68.24
2019-05-19T01:51:19.574Z,68.32
2019-05-19T01:52:20.007Z,68.24
2019-05-19T01:53:20.644Z,68.35
2019-05-19T01:54:21.076Z,68.35
2019-05-19T01:55:21.666Z,68.24
2019-05-19T01:56:22.097Z,68.24
2019-05-19T01:57:22.693Z,68.24
2019-05-19T01:58:23.133Z,68.24
2019-05-19T01:59:25.670Z,68.35
2019-05-19T02:00:26.322Z,68.24
2019-05-19T02:01:26.926Z,68.14
2019-05-19T02:02:27.352Z,68.04
2019-05-19T02:03:42.320Z,68.24
2019-05-19T02:04:42.738Z,68.14
2019-05-19T02:05:43.336Z,68.14
2019-05-19T02:06:43.774Z,68.44
2019-05-19T02:07:44.403Z,68.04
2019-05-19T02:08:44.840Z,68.44
2019-05-19T02:09:47.450Z,68.44
2019-05-19T02:10:47.881Z,68.44
2019-05-19T02:11:48.492Z,68.14
2019-05-19T02:12:48.942Z,68.38
2019-05-19T02:13:50.550Z,68.14
2019-05-19T02:14:50.990Z,68.55
2019-05-19T02:15:51.588Z,68.35
2019-05-19T02:16:52.031Z,69.09
2019-05-19T02:17:54.611Z,68.14
2019-05-19T02:18:55.069Z,69.16
2019-05-19T02:20:00.624Z,68.96
2019-05-19T02:21:01.057Z,68.88
2019-05-19T02:22:10.263Z,68.55
2019-05-19T02:23:10.694Z,68.85
2019-05-19T02:24:11.304Z,69.19
2019-05-19T02:25:11.730Z,69.29
2019-05-19T02:26:12.359Z,68.65
2019-05-19T02:27:12.811Z,68.68
2019-05-19T02:28:13.407Z,68.48
2019-05-19T02:29:13.841Z,68.68
2019-05-19T02:32:35.637Z,68.58
2019-05-19T02:33:36.132Z,68.68
2019-05-19T02:34:37.650Z,68.58
2019-05-19T02:35:38.154Z,68.38
2019-05-19T02:36:46.373Z,68.27
2019-05-19T02:37:46.799Z,69.60
2019-05-19T02:38:54.917Z,69.29
2019-05-19T02:39:55.343Z,69.29
2019-05-19T02:43:06.433Z,69.70
2019-05-19T02:44:06.999Z,69.70
2019-05-19T02:45:07.420Z,69.29
2019-05-19T02:46:07.933Z,69.40
2019-05-19T02:47:08.359Z,69.53
2019-05-19T02:48:08.819Z,69.49
2019-05-19T02:49:09.250Z,69.53
2019-05-19T02:50:09.701Z,69.02
2019-05-19T02:51:10.227Z,68.99
2019-05-19T02:52:10.679Z,69.02
2019-05-19T02:53:11.131Z,69.09
2019-05-19T02:54:11.558Z,68.99
2019-05-19T02:55:12.098Z,68.82
2019-05-19T02:56:12.623Z,69.02
2019-05-19T02:57:13.239Z,69.02
2019-05-19T02:58:13.681Z,69.02
2019-05-19T02:59:14.277Z,69.02
2019-05-19T03:00:14.711Z,68.99
2019-05-19T03:01:21.966Z,68.71
2019-05-19T03:02:22.407Z,68.82
2019-05-19T03:03:23.965Z,68.92
2019-05-19T03:04:24.407Z,68.82
2019-05-19T03:05:24.960Z,69.02
2019-05-19T03:06:25.390Z,69.53
2019-05-19T03:07:26.000Z,69.40
2019-05-19T03:08:26.444Z,69.32
2019-05-19T03:09:27.038Z,69.53
2019-05-19T03:10:27.457Z,69.63
2019-05-19T03:11:28.078Z,69.73
2019-05-19T03:12:28.515Z,69.53
2019-05-19T03:13:29.146Z,69.84
2019-05-19T03:14:29.575Z,69.73
2019-05-19T03:15:30.159Z,69.73
2019-05-19T03:16:30.590Z,69.84
2019-05-19T03:17:32.214Z,69.43
2019-05-19T03:18:32.667Z,69.43
2019-05-19T03:19:34.276Z,69.84
2019-05-19T03:20:34.723Z,69.93
2019-05-19T03:21:36.280Z,69.53
2019-05-19T03:22:36.726Z,69.53
2019-05-19T03:23:39.319Z,70.04
2019-05-19T03:24:39.741Z,69.63
2019-05-19T03:25:44.122Z,70.04
2019-05-19T03:26:44.815Z,69.53
2019-05-19T03:27:52.914Z,69.53
2019-05-19T03:28:53.360Z,69.53
2019-05-19T03:29:54.460Z,69.32
2019-05-19T03:30:54.884Z,69.53
2019-05-19T03:31:55.396Z,69.53
2019-05-19T03:32:55.845Z,69.63
2019-05-19T03:34:06.948Z,69.84
2019-05-19T03:35:07.393Z,70.45
2019-05-19T03:36:07.920Z,70.17
2019-05-19T03:37:08.345Z,70.45
2019-05-19T03:39:25.370Z,70.17
2019-05-19T03:40:26.888Z,70.04
2019-05-19T03:41:27.314Z,70.28
2019-05-19T03:42:44.414Z,70.24
2019-05-19T03:43:45.161Z,70.24
2019-05-19T03:44:46.677Z,70.14
2019-05-19T03:45:47.134Z,70.58
2019-05-19T03:46:47.721Z,70.48
2019-05-19T03:47:48.158Z,70.17
2019-05-19T03:48:50.742Z,70.48
2019-05-19T03:49:51.183Z,70.38
2019-05-19T03:50:52.769Z,70.48
2019-05-19T03:51:53.217Z,70.58
2019-05-19T03:52:55.749Z,70.38
2019-05-19T03:53:56.234Z,70.38
2019-05-19T03:54:58.727Z,70.28
2019-05-19T03:55:59.150Z,70.38
2019-05-19T03:56:59.667Z,70.99
2019-05-19T03:58:00.104Z,70.58
2019-05-19T03:59:00.632Z,70.89
2019-05-19T04:00:01.054Z,71.09
2019-05-19T04:01:02.561Z,70.99
2019-05-19T04:02:02.993Z,70.68
2019-05-19T04:03:03.645Z,71.02
2019-05-19T04:04:04.105Z,70.89
2019-05-19T04:05:05.659Z,70.89
2019-05-19T04:06:06.077Z,70.78
2019-05-19T04:07:06.544Z,70.72
2019-05-19T04:08:06.984Z,70.61
2019-05-19T04:09:07.561Z,70.78
2019-05-19T04:10:07.992Z,70.82
2019-05-19T04:11:08.566Z,70.78
2019-05-19T04:12:08.999Z,70.82
2019-05-19T04:13:11.452Z,70.48
2019-05-19T04:14:11.916Z,70.58
2019-05-19T04:15:12.484Z,70.58
2019-05-19T04:16:12.917Z,70.58
2019-05-19T04:17:13.421Z,70.38
2019-05-19T04:18:13.851Z,70.28
2019-05-19T04:19:14.353Z,70.41
2019-05-19T04:20:14.793Z,70.68
2019-05-19T04:21:16.279Z,70.58
2019-05-19T04:22:16.710Z,70.38
2019-05-19T04:23:17.215Z,70.58
2019-05-19T04:24:17.661Z,70.78
2019-05-19T04:25:19.176Z,70.48
2019-05-19T04:26:19.608Z,70.28
2019-05-19T04:27:21.135Z,70.68
2019-05-19T04:28:21.558Z,70.78
2019-05-19T04:29:22.111Z,70.68
2019-05-19T04:30:22.533Z,70.58
2019-05-19T04:31:24.024Z,70.78
2019-05-19T04:32:24.456Z,70.78
2019-05-19T04:33:25.985Z,70.75
2019-05-19T04:34:26.432Z,70.75
2019-05-19T04:35:26.961Z,70.65
2019-05-19T04:36:27.419Z,70.65
2019-05-19T04:37:28.984Z,70.78
2019-05-19T04:38:29.411Z,70.78
2019-05-19T04:39:29.957Z,70.65
2019-05-19T04:40:30.375Z,70.58
2019-05-19T04:41:31.880Z,70.89
2019-05-19T04:42:32.307Z,70.78
2019-05-19T04:43:53.809Z,70.45
2019-05-19T04:44:54.265Z,70.75
2019-05-19T04:46:01.398Z,70.86
2019-05-19T04:47:01.829Z,70.75
2019-05-19T04:48:02.333Z,70.65
2019-05-19T04:49:02.759Z,70.75
2019-05-19T04:50:03.306Z,70.75
2019-05-19T04:51:03.739Z,70.86
2019-05-19T04:52:10.863Z,70.75
2019-05-19T04:53:11.293Z,70.92
2019-05-19T04:54:18.349Z,70.95
2019-05-19T04:55:18.802Z,71.02
2019-05-19T04:56:19.947Z,70.82
2019-05-19T04:57:20.499Z,71.02
2019-05-19T04:58:22.067Z,70.92
2019-05-19T04:59:22.504Z,71.02
2019-05-19T05:00:23.004Z,70.82
2019-05-19T05:01:23.430Z,70.72
2019-05-19T05:02:24.961Z,70.72
2019-05-19T05:03:25.389Z,70.62
2019-05-19T05:04:29.494Z,70.62
2019-05-19T05:05:30.212Z,70.21
2019-05-19T05:06:31.763Z,70.31
2019-05-19T05:07:32.192Z,70.21
2019-05-19T05:08:32.618Z,70.41
2019-05-19T05:09:33.185Z,70.62
2019-05-19T05:10:33.617Z,70.72
2019-05-19T05:11:34.170Z,70.79
2019-05-19T05:12:34.599Z,70.79
2019-05-19T05:13:36.231Z,70.79
2019-05-19T05:14:36.683Z,70.89
2019-05-19T05:15:38.297Z,70.99
2019-05-19T05:16:38.723Z,71.16
2019-05-19T05:17:40.273Z,70.89
2019-05-19T05:18:40.705Z,70.65
2019-05-19T05:19:43.268Z,70.28
2019-05-19T05:20:43.699Z,70.25
2019-05-19T05:21:44.277Z,70.45
2019-05-19T05:22:44.706Z,70.25
2019-05-19T05:23:46.335Z,70.25
2019-05-19T05:24:46.783Z,70.25
2019-05-19T05:25:48.396Z,70.01
2019-05-19T05:26:48.863Z,69.91
2019-05-19T05:27:49.437Z,70.11
2019-05-19T05:28:49.866Z,70.31
2019-05-19T05:29:52.459Z,70.21
2019-05-19T05:30:52.878Z,69.60
2019-05-19T05:31:53.353Z,69.17
2019-05-19T05:32:53.788Z,69.26
2019-05-19T05:33:54.421Z,69.23
2019-05-19T05:34:54.878Z,69.17
2019-05-19T05:35:55.440Z,69.26
2019-05-19T05:36:55.872Z,68.62
2019-05-19T05:37:56.476Z,68.52
2019-05-19T05:38:56.970Z,69.13
2019-05-19T05:39:57.548Z,69.13
2019-05-19T05:40:57.980Z,69.13
2019-05-19T05:41:58.553Z,69.40
2019-05-19T05:42:58.973Z,69.51
2019-05-19T05:43:59.587Z,69.40
2019-05-19T05:45:00.037Z,69.10
2019-05-19T05:46:00.774Z,68.49
2019-05-19T05:47:01.215Z,68.49
2019-05-19T05:48:01.825Z,68.56
2019-05-19T05:49:02.363Z,68.46
2019-05-19T05:50:03.058Z,68.87
2019-05-19T05:51:03.499Z,68.66
2019-05-19T05:52:04.042Z,68.66
2019-05-19T05:53:04.470Z,68.83
2019-05-19T05:54:05.080Z,67.75
2019-05-19T05:55:05.524Z,68.26
2019-05-19T05:56:06.124Z,67.82
2019-05-19T05:57:06.567Z,67.92
2019-05-19T05:58:07.158Z,67.92
2019-05-19T05:59:07.575Z,67.92
2019-05-19T06:00:08.230Z,68.12
2019-05-19T06:01:08.667Z,68.23
2019-05-19T06:02:09.229Z,68.02
2019-05-19T06:03:09.647Z,67.99
2019-05-19T06:04:10.266Z,67.99
2019-05-19T06:05:10.712Z,68.09
2019-05-19T06:06:11.305Z,67.58
2019-05-19T06:07:11.729Z,67.48
2019-05-19T06:08:14.268Z,67.99
2019-05-19T06:09:14.688Z,67.58
2019-05-19T06:10:24.811Z,67.35
2019-05-19T06:11:25.251Z,66.54
2019-05-19T06:13:02.426Z,66.47
2019-05-19T06:14:02.859Z,66.67
2019-05-19T06:15:24.283Z,66.74
2019-05-19T06:16:24.711Z,66.94
2019-05-19T06:17:32.863Z,66.94
2019-05-19T06:18:33.292Z,67.05
2019-05-19T06:19:34.931Z,67.05
2019-05-19T06:20:35.377Z,66.94
2019-05-19T06:21:35.919Z,66.84
2019-05-19T06:22:36.361Z,66.84
2019-05-19T06:23:36.843Z,66.94
2019-05-19T06:24:37.277Z,66.74
2019-05-19T06:25:37.837Z,66.33
2019-05-19T06:26:38.293Z,66.24
2019-05-19T06:27:46.387Z,66.20
2019-05-19T06:28:46.846Z,66.20
2019-05-19T06:29:54.394Z,66.30
2019-05-19T06:30:54.839Z,66.30
2019-05-19T06:32:02.391Z,66.61
2019-05-19T06:33:02.839Z,66.41
2019-05-19T06:34:03.443Z,66.61
2019-05-19T06:35:03.880Z,66.50
2019-05-19T06:36:04.367Z,66.47
2019-05-19T06:37:04.824Z,66.38
2019-05-19T06:38:13.389Z,66.38
2019-05-19T06:39:13.929Z,66.17
2019-05-19T06:40:14.492Z,66.04
2019-05-19T06:41:14.950Z,66.14
2019-05-19T06:42:15.389Z,66.14
2019-05-19T06:43:15.814Z,66.31
2019-05-19T06:44:16.300Z,66.11
2019-05-19T06:45:16.775Z,66.21
2019-05-19T06:46:18.361Z,66.11
2019-05-19T06:47:18.796Z,65.47
2019-05-19T06:48:19.705Z,65.57
2019-05-19T06:49:20.142Z,65.67
2019-05-19T06:50:20.588Z,65.47
2019-05-19T06:51:21.019Z,65.47
2019-05-19T06:52:21.473Z,65.07
2019-05-19T06:53:21.908Z,65.27
2019-05-19T06:54:22.411Z,65.07
2019-05-19T06:55:22.885Z,65.57
2019-05-19T06:56:23.446Z,65.37
2019-05-19T06:57:23.890Z,65.57
2019-05-19T06:58:24.383Z,65.57
2019-05-19T06:59:24.843Z,65.91
2019-05-19T07:00:25.363Z,65.81
2019-05-19T07:01:25.793Z,65.47
2019-05-19T07:02:26.240Z,65.50
2019-05-19T07:03:26.663Z,65.78
2019-05-19T07:04:27.174Z,65.70
2019-05-19T07:05:27.635Z,65.70
2019-05-19T07:06:28.110Z,65.50
2019-05-19T07:07:28.556Z,66.01
2019-05-19T07:08:29.047Z,65.98
2019-05-19T07:09:29.490Z,65.88
2019-05-19T07:10:30.026Z,66.08
2019-05-19T07:11:30.475Z,65.44
2019-05-19T07:12:31.019Z,65.34
2019-05-19T07:13:31.446Z,65.44
2019-05-19T07:14:32.060Z,65.14
2019-05-19T07:15:32.521Z,65.21
2019-05-19T07:16:33.063Z,64.90
2019-05-19T07:17:33.491Z,64.20
2019-05-19T07:18:34.040Z,64.27
2019-05-19T07:19:34.466Z,63.96
2019-05-19T07:20:35.117Z,63.87
2019-05-19T07:21:35.558Z,63.76
2019-05-19T07:22:37.626Z,63.84
2019-05-19T07:23:38.255Z,63.93
2019-05-19T07:24:38.825Z,64.04
2019-05-19T07:25:39.264Z,63.33
2019-05-19T07:26:40.726Z,63.30
2019-05-19T07:27:41.156Z,63.90
2019-05-19T07:28:41.667Z,63.10
2019-05-19T07:29:42.152Z,62.90
2019-05-19T07:30:42.641Z,63.00
2019-05-19T07:31:43.141Z,63.10
2019-05-19T07:32:43.663Z,62.66
2019-05-19T07:33:44.101Z,62.46
2019-05-19T07:34:46.621Z,62.54
2019-05-19T07:35:47.065Z,62.04
2019-05-19T07:36:47.555Z,62.13
2019-05-19T07:37:48.027Z,62.01
2019-05-19T07:38:49.618Z,62.01
2019-05-19T07:39:50.084Z,61.70
2019-05-19T07:40:50.625Z,61.20
2019-05-19T07:41:51.055Z,60.80
2019-05-19T07:42:51.592Z,60.80
2019-05-19T07:43:52.015Z,61.30
2019-05-19T07:44:52.517Z,61.00
2019-05-19T07:45:52.970Z,60.80
2019-05-19T07:46:53.453Z,61.07
2019-05-19T07:47:53.879Z,60.27
2019-05-19T07:48:54.392Z,60.27
2019-05-19T07:49:54.832Z,60.36
2019-05-19T07:50:55.364Z,60.27
2019-05-19T07:51:55.810Z,60.06
2019-05-19T07:52:56.259Z,60.57
2019-05-19T07:53:56.704Z,61.17
2019-05-19T07:54:57.195Z,61.00
2019-05-19T07:55:57.642Z,60.97
2019-05-19T07:56:58.137Z,60.60
2019-05-19T07:57:58.574Z,60.36
2019-05-19T07:58:59.066Z,60.67
2019-05-19T07:59:59.516Z,60.06
2019-05-19T08:01:00.077Z,60.16
2019-05-19T08:02:00.511Z,60.24
2019-05-19T08:03:01.038Z,59.74
2019-05-19T08:04:01.487Z,59.94
2019-05-19T08:05:02.027Z,60.31
2019-05-19T08:06:02.707Z,60.11
2019-05-19T08:07:03.429Z,59.50
2019-05-19T08:08:03.890Z,59.91
2019-05-19T08:09:04.459Z,59.80
2019-05-19T08:10:04.886Z,59.70
2019-05-19T08:11:05.456Z,59.80
2019-05-19T08:12:05.888Z,59.91
2019-05-19T08:13:06.331Z,59.30
2019-05-19T08:14:06.749Z,59.27
2019-05-19T08:15:07.294Z,58.67
2019-05-19T08:16:07.923Z,59.08
2019-05-19T08:17:08.413Z,59.67
2019-05-19T08:18:08.828Z,58.94
2019-05-19T08:19:10.266Z,58.54
2019-05-19T08:20:10.701Z,58.94
2019-05-19T08:21:11.241Z,58.51
2019-05-19T08:22:11.679Z,58.11
2019-05-19T08:23:12.474Z,58.31
2019-05-19T08:24:13.655Z,58.01
2019-05-19T08:25:14.197Z,58.31
2019-05-19T08:26:14.632Z,58.29
2019-05-19T08:27:15.130Z,57.98
2019-05-19T08:28:15.556Z,57.68
2019-05-19T08:29:16.072Z,57.68
2019-05-19T08:30:16.499Z,58.09
2019-05-19T08:31:16.959Z,58.11
2019-05-19T08:32:17.378Z,57.48
2019-05-19T08:33:17.821Z,56.68
2019-05-19T08:34:18.265Z,56.78
2019-05-19T08:35:18.697Z,56.76
2019-05-19T08:36:19.155Z,55.75
2019-05-19T08:37:19.578Z,56.45
2019-05-19T08:38:20.283Z,56.65
2019-05-19T08:39:20.919Z,56.52
2019-05-19T08:40:21.345Z,57.13
2019-05-19T08:41:21.812Z,57.03
2019-05-19T08:42:22.232Z,57.23
2019-05-19T08:43:22.720Z,56.83
2019-05-19T08:44:23.156Z,56.23
2019-05-19T08:45:23.609Z,56.30
2019-05-19T08:46:24.050Z,54.60
2019-05-19T08:47:24.603Z,54.60
2019-05-19T08:48:25.038Z,54.57
2019-05-19T08:49:25.569Z,54.57
2019-05-19T08:50:26.149Z,53.97
2019-05-19T08:51:26.616Z,54.35
2019-05-19T08:52:27.050Z,53.94
2019-05-19T08:53:27.491Z,54.14
2019-05-19T08:54:27.914Z,54.14
2019-05-19T08:55:28.383Z,54.24
2019-05-19T08:56:28.855Z,54.14
2019-05-19T08:57:29.346Z,54.14
2019-05-19T08:58:29.825Z,54.24
2019-05-19T08:59:30.253Z,53.97
2019-05-19T09:00:38.760Z,54.44
2019-05-19T09:01:39.280Z,54.47
2019-05-19T09:02:40.842Z,54.94
2019-05-19T09:03:41.269Z,54.35
2019-05-19T09:04:58.370Z,54.05
2019-05-19T09:05:58.804Z,52.34
2019-05-19T09:07:05.855Z,51.22
2019-05-19T09:08:06.287Z,51.72
2019-05-19T09:09:14.380Z,51.29
2019-05-19T09:10:14.813Z,50.99
2019-05-19T09:11:15.257Z,50.70
2019-05-19T09:12:15.690Z,50.70
2019-05-19T09:13:16.237Z,50.79
2019-05-19T09:14:16.672Z,50.47
2019-05-19T09:16:33.241Z,50.37
2019-05-19T09:17:33.674Z,50.77
2019-05-19T09:18:34.175Z,50.57
2019-05-19T09:19:34.711Z,49.87
2019-05-19T09:20:35.129Z,49.87
2019-05-19T09:21:35.683Z,50.49
2019-05-19T09:22:36.175Z,50.57
2019-05-19T09:23:36.685Z,50.47
2019-05-19T09:24:37.429Z,50.97
2019-05-19T09:25:38.029Z,51.29
2019-05-19T09:26:38.483Z,51.89
2019-05-19T09:28:07.841Z,51.29
2019-05-19T09:29:08.262Z,51.87
2019-05-19T09:30:08.841Z,51.59
2019-05-19T09:31:09.310Z,51.09
2019-05-19T09:32:10.839Z,51.39
2019-05-19T09:33:11.265Z,51.50
2019-05-19T09:35:26.692Z,51.87
2019-05-19T09:36:29.242Z,52.00
2019-05-19T09:37:29.673Z,51.79
2019-05-19T09:38:30.179Z,52.00
2019-05-19T09:39:30.610Z,51.97
2019-05-19T09:40:31.045Z,52.17
2019-05-19T09:41:31.714Z,52.27
2019-05-19T09:42:32.151Z,51.79
2019-05-19T09:43:32.624Z,52.00
2019-05-19T09:44:33.114Z,52.09
2019-05-19T09:45:33.561Z,52.17
2019-05-19T09:46:34.033Z,52.49
2019-05-19T09:47:34.535Z,52.37
2019-05-19T09:48:34.984Z,52.49
2019-05-19T09:49:36.457Z,52.49
2019-05-19T09:50:36.887Z,52.37
2019-05-19T09:51:37.424Z,52.09
2019-05-19T09:52:37.846Z,52.47
2019-05-19T09:53:38.278Z,52.47
2019-05-19T09:54:45.068Z,52.27
2019-05-19T09:55:45.126Z,52.37
2019-05-19T09:56:45.608Z,52.25
2019-05-19T09:57:46.029Z,52.44
2019-05-19T09:58:47.582Z,51.94
2019-05-19T09:59:48.034Z,52.14
2019-05-19T10:00:48.496Z,51.12
2019-05-19T10:01:49.040Z,51.52
2019-05-19T10:02:50.573Z,51.42
2019-05-19T10:03:50.999Z,51.22
2019-05-19T10:04:59.291Z,51.82
2019-05-19T10:05:59.712Z,51.54
2019-05-19T10:07:01.545Z,52.14
2019-05-19T10:08:02.176Z,51.54
2019-05-19T10:09:04.648Z,51.84
2019-05-19T10:10:05.083Z,51.94
2019-05-19T10:11:30.812Z,52.27
2019-05-19T10:12:31.244Z,52.37
2019-05-19T10:13:31.819Z,52.27
2019-05-19T10:14:32.251Z,52.17
2019-05-19T10:15:39.262Z,52.49
2019-05-19T10:16:39.736Z,52.29
2019-05-19T10:17:40.179Z,53.39
2019-05-19T10:18:40.613Z,53.32
2019-05-19T10:19:41.198Z,52.92
2019-05-19T10:20:41.619Z,53.52
2019-05-19T10:21:42.170Z,53.62
2019-05-19T10:22:42.698Z,52.72
2019-05-19T10:23:44.192Z,52.92
2019-05-19T10:24:59.230Z,52.52
2019-05-19T10:25:51.050Z,52.72
2019-05-19T10:26:51.527Z,52.89
2019-05-19T10:27:51.943Z,53.30
2019-05-19T10:28:52.515Z,52.49
2019-05-19T10:29:52.963Z,52.37
2019-05-19T10:30:53.498Z,52.25
2019-05-19T10:31:54.574Z,51.94
2019-05-19T10:32:58.482Z,52.44
2019-05-19T10:33:59.204Z,52.25
2019-05-19T10:34:59.703Z,52.32
2019-05-19T10:36:00.131Z,52.00
2019-05-19T10:37:00.648Z,51.89
2019-05-19T10:38:01.067Z,51.59
2019-05-19T10:39:02.564Z,51.70
2019-05-19T10:40:02.998Z,52.29
2019-05-19T10:41:03.434Z,51.70
2019-05-19T10:42:03.959Z,52.09
2019-05-19T10:43:04.384Z,51.59
2019-05-19T10:44:04.883Z,52.39
2019-05-19T10:45:05.337Z,52.22
2019-05-19T10:46:12.757Z,52.22
2019-05-19T10:47:13.198Z,52.29
2019-05-19T10:48:14.402Z,52.00
2019-05-19T10:49:14.827Z,52.39
2019-05-19T10:50:17.296Z,51.89
2019-05-19T10:51:17.758Z,51.87
2019-05-19T10:52:18.265Z,52.07
2019-05-19T10:53:18.720Z,51.37
2019-05-19T10:54:19.261Z,51.07
2019-05-19T10:55:19.700Z,50.85
2019-05-19T10:56:20.191Z,50.95
2019-05-19T10:57:20.640Z,52.07
2019-05-19T10:58:21.129Z,51.87
2019-05-19T10:59:21.559Z,51.79
2019-05-19T11:00:23.095Z,52.17
2019-05-19T11:01:23.526Z,52.19
2019-05-19T11:02:24.059Z,52.19
2019-05-19T11:03:24.490Z,51.27
2019-05-19T11:04:24.957Z,51.57
2019-05-19T11:05:25.386Z,51.17
2019-05-19T11:06:25.812Z,51.27
2019-05-19T11:07:26.255Z,51.17
2019-05-19T11:08:26.727Z,51.59
2019-05-19T11:09:27.155Z,52.00
2019-05-19T11:10:27.667Z,51.20
2019-05-19T11:11:28.107Z,51.50
2019-05-19T11:12:29.665Z,51.20
2019-05-19T11:13:30.087Z,51.79
2019-05-19T11:14:30.561Z,51.89
2019-05-19T11:15:30.987Z,51.50
2019-05-19T11:16:31.496Z,51.59
2019-05-19T11:17:31.937Z,50.90
2019-05-19T11:18:32.435Z,51.10
2019-05-19T11:19:32.855Z,50.79
2019-05-19T11:20:33.368Z,51.50
2019-05-19T11:21:33.790Z,51.10
2019-05-19T11:22:34.337Z,50.99
2019-05-19T11:23:34.796Z,51.70
2019-05-19T11:24:36.263Z,51.17
2019-05-19T11:25:50.624Z,51.35
2019-05-19T11:26:43.089Z,50.74
2019-05-19T11:27:43.595Z,50.45
2019-05-19T11:28:44.023Z,50.05
2019-05-19T11:29:44.589Z,49.85
2019-05-19T11:30:45.054Z,49.23
2019-05-19T11:31:45.539Z,49.23
2019-05-19T11:32:46.014Z,49.33
2019-05-19T11:33:46.570Z,49.53
2019-05-19T11:34:46.994Z,49.70
2019-05-19T11:35:47.536Z,49.80
2019-05-19T11:36:47.955Z,49.70
2019-05-19T11:37:48.509Z,49.60
2019-05-19T11:38:48.942Z,49.21
2019-05-19T11:39:49.509Z,49.21
2019-05-19T11:40:49.941Z,49.60
2019-05-19T11:41:50.482Z,49.51
2019-05-19T11:42:50.916Z,49.21
2019-05-19T11:43:51.378Z,49.21
2019-05-19T11:44:51.812Z,49.58
2019-05-19T11:45:54.259Z,49.38
2019-05-19T11:46:54.695Z,49.76
2019-05-19T11:47:55.194Z,49.06
2019-05-19T11:48:55.626Z,49.13
2019-05-19T11:49:56.138Z,49.23
2019-05-19T11:50:56.570Z,48.64
2019-05-19T11:51:57.135Z,48.34
2019-05-19T11:52:57.557Z,48.41
2019-05-19T11:53:58.003Z,48.22
2019-05-19T11:54:58.491Z,48.29
2019-05-19T11:56:06.767Z,47.99
2019-05-19T11:57:05.491Z,47.57
2019-05-19T11:58:06.018Z,47.87
2019-05-19T11:59:06.438Z,47.57
2019-05-19T12:00:07.031Z,47.85
2019-05-19T12:01:07.484Z,47.25
2019-05-19T12:02:08.224Z,47.73
2019-05-19T12:03:08.710Z,46.95
2019-05-19T12:04:09.235Z,46.93
2019-05-19T12:05:09.693Z,46.14
2019-05-19T12:06:10.168Z,46.73
2019-05-19T12:07:10.654Z,46.14
2019-05-19T12:08:11.103Z,46.06
2019-05-19T12:09:11.537Z,46.95
2019-05-19T12:10:12.050Z,46.56
2019-05-19T12:11:12.482Z,46.53
2019-05-19T12:12:13.031Z,45.23
2019-05-19T12:13:13.453Z,44.13
2019-05-19T12:14:13.921Z,44.60
2019-05-19T12:15:14.359Z,44.56
2019-05-19T12:16:15.876Z,43.85
2019-05-19T12:17:16.322Z,44.52
2019-05-19T12:18:17.839Z,43.83
2019-05-19T12:19:18.316Z,43.71
2019-05-19T12:20:20.882Z,44.58
2019-05-19T12:21:21.373Z,43.87
2019-05-19T12:22:21.890Z,43.57
2019-05-19T12:23:22.399Z,43.65
2019-05-19T12:24:22.976Z,43.62
2019-05-19T12:25:23.404Z,43.51
2019-05-19T12:26:23.969Z,42.89
2019-05-19T12:27:24.427Z,41.81
2019-05-19T12:28:24.978Z,42.38
2019-05-19T12:29:25.399Z,42.08
2019-05-19T12:30:25.905Z,40.98
2019-05-19T12:31:26.345Z,40.47
2019-05-19T12:32:26.974Z,40.74
2019-05-19T12:33:27.402Z,40.23
2019-05-19T12:34:27.873Z,39.94
2019-05-19T12:35:28.339Z,40.13
2019-05-19T12:36:28.810Z,40.11
2019-05-19T12:37:29.254Z,40.94
2019-05-19T12:38:29.744Z,40.47
2019-05-19T12:39:30.189Z,41.47
2019-05-19T12:40:30.682Z,41.12
2019-05-19T12:41:31.116Z,41.51
2019-05-19T12:42:31.659Z,41.14
2019-05-19T12:43:32.097Z,41.46
2019-05-19T12:44:32.552Z,40.48
2019-05-19T12:45:33.134Z,40.98
2019-05-19T12:46:33.691Z,41.08
2019-05-19T12:47:34.149Z,39.70
2019-05-19T12:48:35.652Z,39.58
2019-05-19T12:49:36.076Z,38.81
2019-05-19T12:50:43.335Z,38.73
2019-05-19T12:51:43.772Z,38.33
2019-05-19T12:52:47.275Z,38.23
2019-05-19T12:53:47.690Z,38.92
2019-05-19T12:54:49.213Z,38.33
2019-05-19T12:55:49.637Z,38.41
2019-05-19T12:56:57.818Z,38.29
2019-05-19T12:57:58.266Z,38.61
2019-05-19T12:58:58.781Z,38.21
2019-05-19T12:59:59.258Z,38.29
2019-05-19T13:01:00.715Z,38.08
2019-05-19T13:02:01.183Z,37.47
2019-05-19T13:03:02.702Z,38.28
2019-05-19T13:04:03.131Z,37.98
2019-05-19T13:05:06.109Z,37.90
2019-05-19T13:06:06.819Z,38.79
2019-05-19T13:07:14.377Z,39.11
2019-05-19T13:08:14.836Z,39.03
2019-05-19T13:09:15.287Z,39.24
2019-05-19T13:10:15.707Z,39.75
2019-05-19T13:11:16.222Z,40.76
2019-05-19T13:12:16.658Z,41.38
2019-05-19T13:13:17.192Z,41.38
2019-05-19T13:14:17.615Z,42.09
2019-05-19T13:15:18.137Z,42.21
2019-05-19T13:16:18.597Z,41.83
2019-05-19T13:17:21.068Z,42.74
2019-05-19T13:18:21.525Z,42.96